Gladiator — EA5097 — position and weather

sailwx.info

Track history (hours):
 
Tides and Currents Weather Stations Pressure Air Temp Water Temp Dewpoint Dewpoint Depression Visibility Wind Speed Wind Dir Waves Ship Positions

Gladiator

Last reported at 2018-Feb-18 16:41 UTC. Time now 2018-Feb-22 11:12 UTC.
Position N 39°34' E 002°38'.

Length 13 m.

Type: Sailing vessel. MMSI: 225970780.

Date/timePositionNaut miles runAvg speedWind from/ knotsBaromVisibWave heightAir tempDewpointWater temp
2018-Feb-18 16:41N 39°34' E 002°38'0 0.0
2018-Feb-18 16:29N 39°34' E 002°38'0 0.0
2018-Feb-18 15:59N 39°34' E 002°38'0 0.0
2018-Feb-18 15:29N 39°34' E 002°38'0 0.0
2018-Feb-18 14:59N 39°34' E 002°38'0 0.0
2018-Feb-18 14:29N 39°34' E 002°38'0 0.0
2018-Feb-18 13:59N 39°34' E 002°38'0 0.0
2018-Feb-18 13:29N 39°34' E 002°38'0 0.0
2018-Feb-18 13:00N 39°34' E 002°38'1 2.1
2018-Feb-18 12:30N 39°33' E 002°39'2 4.0
2018-Feb-18 12:00N 39°31' E 002°38'2 4.8
2018-Feb-18 11:28N 39°31' E 002°35'1 2.4
2018-Feb-18 11:00N 39°32' E 002°36'2 3.7
2018-Feb-18 10:30N 39°33' E 002°38'1 0.1
2018-Feb-17 16:05N 39°34' E 002°38'0 0.1
2018-Feb-17 15:59N 39°34' E 002°38'0 0.0
2018-Feb-17 15:30N 39°34' E 002°38'0 0.0
2018-Feb-17 14:59N 39°34' E 002°38'0 0.0
2018-Feb-17 14:29N 39°34' E 002°38'0 0.0
2018-Feb-17 13:59N 39°34' E 002°38'0 0.0
2018-Feb-17 13:29N 39°34' E 002°38'0 0.0
2018-Feb-17 12:56N 39°34' E 002°38'0 0.0
2018-Feb-17 12:29N 39°34' E 002°38'0 0.0
2018-Feb-17 11:59N 39°34' E 002°38'0 0.0
2018-Feb-17 11:29N 39°34' E 002°38'0 0.0
2018-Feb-17 11:00N 39°34' E 002°38'0 0.0
2018-Feb-17 10:29N 39°34' E 002°38'0 0.0
2018-Feb-17 09:59N 39°34' E 002°38'0 0.0
2018-Feb-17 09:29N 39°34' E 002°38'0 0.2
2018-Feb-17 08:59N 39°34' E 002°38'0 0.0
2018-Feb-16 17:16N 39°34' E 002°38'0 0.0
2018-Feb-16 16:58N 39°34' E 002°38'0 0.2
2018-Feb-16 16:30N 39°34' E 002°38'0 0.1
2018-Feb-16 16:00N 39°34' E 002°38'0 0.2
2018-Feb-16 15:29N 39°34' E 002°38'1 1.0
2018-Feb-16 15:00N 39°34' E 002°38'1 2.8
2018-Feb-16 14:30N 39°33' E 002°40'2 3.1
2018-Feb-16 14:00N 39°34' E 002°38'0 0.3
2018-Feb-16 13:30N 39°34' E 002°38'0 0.0
2018-Feb-16 13:00N 39°34' E 002°38'0 0.0
2018-Feb-16 12:30N 39°34' E 002°38'  
2018-Feb-11 14:17N 39°34' E 002°38'0 0.2
2018-Feb-11 14:00N 39°34' E 002°38'2 3.7
2018-Feb-11 13:30N 39°32' E 002°39'3 5.5
2018-Feb-11 13:00N 39°32' E 002°35'2 1.6
2018-Feb-11 11:43N 39°30' E 002°33'2 4.6
2018-Feb-11 11:23N 39°31' E 002°34'1 3.2
2018-Feb-11 11:00N 39°31' E 002°36'1 2.8
2018-Feb-11 10:30N 39°32' E 002°37'3 5.5
2018-Feb-11 10:00N 39°30' E 002°40'2 4.3
2018-Feb-11 09:29N 39°28' E 002°42'1 2.9
2018-Feb-11 09:00N 39°28' E 002°43'1 1.0
2018-Feb-11 08:08N 39°27' E 002°44'0 3.1
2018-Feb-11 08:00N 39°27' E 002°44'9 0.5
2018-Feb-10 11:41N 39°29' E 002°32'1 3.6
2018-Feb-10 11:21N 39°30' E 002°33'2 5.6
2018-Feb-10 10:58N 39°30' E 002°36'2 4.6
2018-Feb-10 10:30N 39°29' E 002°38'2 4.5
2018-Feb-10 09:57N 39°29' E 002°41'1 2.2
2018-Feb-10 09:30N 39°29' E 002°43'2 3.2
2018-Feb-10 08:55N 39°28' E 002°44'0 0.5
2018-Feb-10 08:07N 39°27' E 002°44'1 4.6
2018-Feb-10 07:53N 39°26' E 002°44'6 0.4
2018-Feb-09 15:00N 39°31' E 002°40'  
Track history (hours):
 
Tides and Currents Weather Stations Pressure Air Temp Water Temp Dewpoint Dewpoint Depression Visibility Wind Speed Wind Dir Waves Ship Positions

Gladiator

Last reported at 2018-Feb-18 16:41 UTC. Time now 2018-Feb-22 11:12 UTC.
Position N 39°34' E 002°38'.

Length 13 m.

Type: Sailing vessel. MMSI: 225970780.

Date/timePositionNaut miles runAvg speedWind from/ knotsBaromVisibWave heightAir tempDewpointWater temp
2018-Feb-18 16:41N 39°34' E 002°38'0 0.0
2018-Feb-18 16:29N 39°34' E 002°38'0 0.0
2018-Feb-18 15:59N 39°34' E 002°38'0 0.0
2018-Feb-18 15:29N 39°34' E 002°38'0 0.0
2018-Feb-18 14:59N 39°34' E 002°38'0 0.0
2018-Feb-18 14:29N 39°34' E 002°38'0 0.0
2018-Feb-18 13:59N 39°34' E 002°38'0 0.0
2018-Feb-18 13:29N 39°34' E 002°38'0 0.0
2018-Feb-18 13:00N 39°34' E 002°38'1 2.1
2018-Feb-18 12:30N 39°33' E 002°39'2 4.0
2018-Feb-18 12:00N 39°31' E 002°38'2 4.8
2018-Feb-18 11:28N 39°31' E 002°35'1 2.4
2018-Feb-18 11:00N 39°32' E 002°36'2 3.7
2018-Feb-18 10:30N 39°33' E 002°38'1 0.1
2018-Feb-17 16:05N 39°34' E 002°38'0 0.1
2018-Feb-17 15:59N 39°34' E 002°38'0 0.0
2018-Feb-17 15:30N 39°34' E 002°38'0 0.0
2018-Feb-17 14:59N 39°34' E 002°38'0 0.0
2018-Feb-17 14:29N 39°34' E 002°38'0 0.0
2018-Feb-17 13:59N 39°34' E 002°38'0 0.0
2018-Feb-17 13:29N 39°34' E 002°38'0 0.0
2018-Feb-17 12:56N 39°34' E 002°38'0 0.0
2018-Feb-17 12:29N 39°34' E 002°38'0 0.0
2018-Feb-17 11:59N 39°34' E 002°38'0 0.0
2018-Feb-17 11:29N 39°34' E 002°38'0 0.0
2018-Feb-17 11:00N 39°34' E 002°38'0 0.0
2018-Feb-17 10:29N 39°34' E 002°38'0 0.0
2018-Feb-17 09:59N 39°34' E 002°38'0 0.0
2018-Feb-17 09:29N 39°34' E 002°38'0 0.2
2018-Feb-17 08:59N 39°34' E 002°38'0 0.0
2018-Feb-16 17:16N 39°34' E 002°38'0 0.0
2018-Feb-16 16:58N 39°34' E 002°38'0 0.2
2018-Feb-16 16:30N 39°34' E 002°38'0 0.1
2018-Feb-16 16:00N 39°34' E 002°38'0 0.2
2018-Feb-16 15:29N 39°34' E 002°38'1 1.0
2018-Feb-16 15:00N 39°34' E 002°38'1 2.8
2018-Feb-16 14:30N 39°33' E 002°40'2 3.1
2018-Feb-16 14:00N 39°34' E 002°38'0 0.3
2018-Feb-16 13:30N 39°34' E 002°38'0 0.0
2018-Feb-16 13:00N 39°34' E 002°38'0 0.0
2018-Feb-16 12:30N 39°34' E 002°38'  
2018-Feb-11 14:17N 39°34' E 002°38'0 0.2
2018-Feb-11 14:00N 39°34' E 002°38'2 3.7
2018-Feb-11 13:30N 39°32' E 002°39'3 5.5
2018-Feb-11 13:00N 39°32' E 002°35'2 1.6
2018-Feb-11 11:43N 39°30' E 002°33'2 4.6
2018-Feb-11 11:23N 39°31' E 002°34'1 3.2
2018-Feb-11 11:00N 39°31' E 002°36'1 2.8
2018-Feb-11 10:30N 39°32' E 002°37'3 5.5
2018-Feb-11 10:00N 39°30' E 002°40'2 4.3
2018-Feb-11 09:29N 39°28' E 002°42'1 2.9
2018-Feb-11 09:00N 39°28' E 002°43'1 1.0
2018-Feb-11 08:08N 39°27' E 002°44'0 3.1
2018-Feb-11 08:00N 39°27' E 002°44'9 0.5
2018-Feb-10 11:41N 39°29' E 002°32'1 3.6
2018-Feb-10 11:21N 39°30' E 002°33'2 5.6
2018-Feb-10 10:58N 39°30' E 002°36'2 4.6
2018-Feb-10 10:30N 39°29' E 002°38'2 4.5
2018-Feb-10 09:57N 39°29' E 002°41'1 2.2
2018-Feb-10 09:30N 39°29' E 002°43'2 3.2
2018-Feb-10 08:55N 39°28' E 002°44'0 0.5
2018-Feb-10 08:07N 39°27' E 002°44'1 4.6
2018-Feb-10 07:53N 39°26' E 002°44'6 0.4
2018-Feb-09 15:00N 39°31' E 002°40'  

Dump ship's entire track history